createdAt,value
2018-04-06T00:00:35.874Z,99.90
2018-04-06T00:03:05.988Z,99.90
2018-04-06T00:05:35.396Z,99.90
2018-04-06T00:08:04.592Z,99.90
2018-04-06T00:10:34.819Z,99.90
2018-04-06T00:13:04.654Z,99.90
2018-04-06T00:15:34.190Z,99.90
2018-04-06T00:18:03.442Z,99.90
2018-04-06T00:20:33.331Z,99.90
2018-04-06T00:23:02.315Z,99.90
2018-04-06T00:25:31.578Z,99.90
2018-04-06T00:28:01.484Z,99.90
2018-04-06T00:30:30.955Z,99.90
2018-04-06T00:33:00.017Z,99.90
2018-04-06T00:35:29.148Z,99.90
2018-04-06T00:37:58.075Z,99.90
2018-04-06T00:40:27.283Z,99.90
2018-04-06T00:42:57.195Z,99.90
2018-04-06T00:45:27.416Z,99.90
2018-04-06T00:47:57.236Z,99.90
2018-04-06T00:50:27.261Z,99.90
2018-04-06T00:52:57.329Z,99.90
2018-04-06T00:55:26.879Z,99.90
2018-04-06T00:57:55.979Z,99.90
2018-04-06T01:00:26.197Z,99.90
2018-04-06T01:02:55.498Z,99.90
2018-04-06T01:05:25.716Z,99.90
2018-04-06T01:07:54.947Z,99.90
2018-04-06T01:10:24.229Z,99.90
2018-04-06T01:12:53.456Z,99.90
2018-04-06T01:15:22.728Z,99.90
2018-04-06T01:17:51.712Z,99.90
2018-04-06T01:20:20.825Z,99.90
2018-04-06T01:22:49.908Z,99.90
2018-04-06T01:25:19.185Z,99.90
2018-04-06T01:27:48.476Z,99.90
2018-04-06T01:30:17.920Z,99.90
2018-04-06T01:32:48.036Z,99.90
2018-04-06T01:35:17.443Z,99.90
2018-04-06T01:37:47.524Z,99.90
2018-04-06T01:40:16.976Z,99.90
2018-04-06T01:42:46.172Z,99.90
2018-04-06T01:45:15.441Z,99.90
2018-04-06T01:47:44.400Z,99.90
2018-04-06T01:50:13.768Z,99.90
2018-04-06T01:52:43.683Z,99.90
2018-04-06T01:55:13.937Z,99.90
2018-04-06T01:57:43.940Z,99.90
2018-04-06T02:00:13.428Z,99.90
2018-04-06T02:02:43.401Z,99.90
2018-04-06T02:05:12.736Z,99.90
2018-04-06T02:07:42.008Z,99.90
2018-04-06T02:10:11.467Z,99.90
2018-04-06T02:12:40.687Z,99.90
2018-04-06T02:15:10.884Z,99.90
2018-04-06T02:17:41.059Z,99.90
2018-04-06T02:20:10.303Z,99.90
2018-04-06T02:22:39.662Z,99.90
2018-04-06T02:25:08.981Z,99.90
2018-04-06T02:27:38.000Z,99.90
2018-04-06T02:30:07.304Z,99.90
2018-04-06T02:32:37.327Z,99.90
2018-04-06T02:35:07.577Z,99.90
2018-04-06T02:37:36.752Z,99.90
2018-04-06T02:40:06.084Z,99.90
2018-04-06T02:42:35.992Z,99.90
2018-04-06T02:45:05.884Z,99.90
2018-04-06T02:47:35.796Z,99.90
2018-04-06T02:50:05.037Z,99.90
2018-04-06T02:52:34.024Z,99.90
2018-04-06T02:55:04.137Z,99.90
2018-04-06T02:57:34.288Z,99.90
2018-04-06T03:00:03.845Z,99.90
2018-04-06T03:02:33.082Z,99.90
2018-04-06T03:05:02.202Z,99.90
2018-04-06T03:07:31.324Z,99.90
2018-04-06T03:10:00.500Z,99.90
2018-04-06T03:12:29.523Z,99.90
2018-04-06T03:14:59.672Z,99.90
2018-04-06T03:17:28.892Z,99.90
2018-04-06T03:19:57.952Z,99.90
2018-04-06T03:22:27.042Z,99.90
2018-04-06T03:24:57.168Z,99.90
2018-04-06T03:27:27.240Z,99.50
2018-04-06T03:29:56.511Z,99.50
2018-04-06T03:32:25.608Z,99.40
2018-04-06T03:34:54.984Z,99.20
2018-04-06T03:37:25.006Z,99.10
2018-04-06T03:39:55.001Z,98.80
2018-04-06T03:42:24.011Z,98.80
2018-04-06T03:44:53.280Z,98.40
2018-04-06T03:47:22.575Z,98.30
2018-04-06T03:49:51.928Z,99.00
2018-04-06T03:52:21.132Z,99.20
2018-04-06T03:54:50.361Z,99.10
2018-04-06T03:57:20.337Z,98.80
2018-04-06T03:59:49.776Z,98.80
2018-04-06T04:02:19.041Z,98.90
2018-04-06T04:04:49.068Z,98.80
2018-04-06T04:07:18.858Z,98.70
2018-04-06T04:09:48.241Z,98.70
2018-04-06T04:12:17.511Z,98.60
2018-04-06T04:14:46.799Z,98.60
2018-04-06T04:17:15.885Z,98.70
2018-04-06T04:19:45.183Z,97.90
2018-04-06T04:22:15.052Z,98.00
2018-04-06T04:24:44.404Z,97.90
2018-04-06T04:27:13.603Z,97.60
2018-04-06T04:29:43.820Z,96.70
2018-04-06T04:32:13.536Z,96.10
2018-04-06T04:34:43.656Z,94.80
2018-04-06T04:37:13.772Z,93.40
2018-04-06T04:39:43.651Z,92.30
2018-04-06T04:42:12.778Z,92.30
2018-04-06T04:44:41.947Z,91.20
2018-04-06T04:47:11.031Z,90.00
2018-04-06T04:49:40.444Z,88.20
2018-04-06T04:52:09.716Z,88.00
2018-04-06T04:54:39.033Z,90.10
2018-04-06T04:57:08.119Z,90.10
2018-04-06T04:59:38.233Z,90.80
2018-04-06T05:02:08.311Z,90.30
2018-04-06T05:04:37.940Z,90.20
2018-04-06T05:07:07.235Z,87.90
2018-04-06T05:09:37.460Z,82.90
2018-04-06T05:12:07.541Z,77.70
2018-04-06T05:14:37.495Z,73.90
2018-04-06T05:17:07.440Z,73.40
2018-04-06T05:19:36.850Z,73.30
2018-04-06T05:22:06.341Z,77.70
2018-04-06T05:24:35.633Z,80.50
2018-04-06T05:27:04.824Z,81.80
2018-04-06T05:29:34.853Z,78.90
2018-04-06T05:32:04.204Z,78.80
2018-04-06T05:34:33.549Z,75.20
2018-04-06T05:37:02.652Z,73.40
2018-04-06T05:39:32.867Z,72.50
2018-04-06T05:42:02.621Z,69.90
2018-04-06T05:44:31.784Z,69.80
2018-04-06T05:47:00.928Z,68.90
2018-04-06T05:49:30.485Z,66.50
2018-04-06T05:52:00.394Z,59.20
2018-04-06T05:54:30.528Z,58.10
2018-04-06T05:57:00.536Z,57.60
2018-04-06T05:59:30.474Z,57.50
2018-04-06T06:01:59.573Z,57.50
2018-04-06T06:04:28.719Z,57.60
2018-04-06T06:06:58.153Z,57.70
2018-04-06T06:09:27.977Z,56.90
2018-04-06T06:11:57.917Z,57.00
2018-04-06T06:14:27.014Z,57.00
2018-04-06T06:16:57.084Z,56.00
2018-04-06T06:19:26.536Z,56.00
2018-04-06T06:21:55.708Z,56.40
2018-04-06T06:24:25.113Z,56.70
2018-04-06T06:26:54.304Z,56.20
2018-04-06T06:29:24.432Z,56.10
2018-04-06T06:31:54.543Z,56.20
2018-04-06T06:34:23.861Z,56.20
2018-04-06T06:36:53.004Z,55.40
2018-04-06T06:39:22.319Z,55.00
2018-04-06T06:41:51.339Z,53.90
2018-04-06T06:44:20.764Z,52.40
2018-04-06T06:46:50.007Z,50.90
2018-04-06T06:49:19.558Z,50.00
2018-04-06T06:51:48.660Z,49.50
2018-04-06T06:54:18.906Z,48.00
2018-04-06T06:56:48.984Z,48.20
2018-04-06T06:59:18.512Z,48.10
2018-04-06T07:01:48.583Z,49.30
2018-04-06T07:04:18.037Z,49.30
2018-04-06T07:06:48.152Z,49.60
2018-04-06T07:09:18.400Z,49.10
2018-04-06T07:11:47.732Z,49.10
2018-04-06T07:14:16.808Z,50.30
2018-04-06T07:16:46.005Z,50.70
2018-04-06T07:19:15.195Z,50.40
2018-04-06T07:21:44.480Z,51.80
2018-04-06T07:24:14.723Z,53.10
2018-04-06T07:26:44.000Z,52.90
2018-04-06T07:29:14.252Z,52.30
2018-04-06T07:31:43.343Z,52.30
2018-04-06T07:34:12.729Z,52.30
2018-04-06T07:36:42.637Z,51.90
2018-04-06T07:39:12.643Z,51.60
2018-04-06T07:41:41.650Z,52.10
2018-04-06T07:44:11.152Z,52.10
2018-04-06T07:46:40.392Z,52.90
2018-04-06T07:49:09.483Z,52.40
2018-04-06T07:51:38.555Z,51.50
2018-04-06T07:54:08.773Z,51.50
2018-04-06T07:56:38.004Z,51.50
2018-04-06T07:59:07.380Z,51.70
2018-04-06T08:01:36.577Z,50.90
2018-04-06T08:04:06.704Z,54.90
2018-04-06T08:06:36.771Z,60.00
2018-04-06T08:09:06.936Z,60.00
2018-04-06T08:11:36.545Z,62.00
2018-04-06T08:14:06.464Z,63.20
2018-04-06T08:16:36.589Z,65.80
2018-04-06T08:19:06.746Z,67.90
2018-04-06T08:21:35.910Z,67.80
2018-04-06T08:24:06.152Z,67.90
2018-04-06T08:26:35.252Z,67.60
2018-04-06T08:29:05.546Z,66.00
2018-04-06T08:31:34.776Z,65.90
2018-04-06T08:34:04.057Z,66.20
2018-04-06T08:36:34.168Z,66.40
2018-04-06T08:39:04.264Z,66.10
2018-04-06T08:41:34.207Z,64.30
2018-04-06T08:44:04.227Z,67.50
2018-04-06T08:46:34.038Z,70.40
2018-04-06T08:49:04.271Z,71.60
2018-04-06T08:51:34.379Z,70.60
2018-04-06T08:54:04.307Z,72.70
2018-04-06T08:56:34.427Z,74.40
2018-04-06T08:59:04.467Z,77.10
2018-04-06T09:01:33.569Z,77.10
2018-04-06T09:04:02.843Z,75.80
2018-04-06T09:06:32.820Z,77.40
2018-04-06T09:09:02.274Z,77.40
2018-04-06T09:11:31.482Z,78.20
2018-04-06T09:14:00.967Z,82.20
2018-04-06T09:16:30.440Z,87.20
2018-04-06T09:18:59.987Z,87.10
2018-04-06T09:21:30.100Z,83.50
2018-04-06T09:24:00.025Z,82.30
2018-04-06T09:26:29.939Z,79.20
2018-04-06T09:29:00.118Z,78.20
2018-04-06T09:31:29.253Z,78.20
2018-04-06T09:33:58.664Z,77.80
2018-04-06T09:36:28.788Z,76.10
2018-04-06T09:38:58.592Z,76.90
2018-04-06T09:41:28.615Z,75.80
2018-04-06T09:43:58.832Z,76.00
2018-04-06T09:46:38.580Z,76.00
2018-04-06T09:49:08.596Z,71.70
2018-04-06T09:51:38.617Z,72.80
2018-04-06T09:54:08.780Z,73.10
2018-04-06T09:56:37.939Z,73.10
2018-04-06T09:59:08.155Z,73.70
2018-04-06T10:01:37.816Z,72.60
2018-04-06T10:04:07.890Z,71.30
2018-04-06T10:06:37.094Z,71.30
2018-04-06T10:09:06.586Z,73.80
2018-04-06T10:11:35.748Z,74.10
2018-04-06T10:14:05.315Z,78.90
2018-04-06T10:16:34.440Z,81.80
2018-04-06T10:19:03.803Z,85.00
2018-04-06T10:21:34.024Z,89.70
2018-04-06T10:24:03.803Z,92.20
2018-04-06T10:26:32.840Z,92.20
2018-04-06T10:29:02.856Z,88.20
2018-04-06T10:31:32.932Z,86.80
2018-04-06T10:34:02.308Z,86.80
2018-04-06T10:36:31.674Z,83.60
2018-04-06T10:39:00.843Z,85.00
2018-04-06T10:41:30.719Z,88.90
2018-04-06T10:43:59.941Z,88.80
2018-04-06T10:46:29.102Z,91.00
2018-04-06T10:48:58.436Z,92.00
2018-04-06T10:51:27.328Z,92.70
2018-04-06T10:53:57.440Z,92.40
2018-04-06T10:56:27.111Z,92.10
2018-04-06T10:58:56.215Z,92.10
2018-04-06T11:01:26.055Z,90.30
2018-04-06T11:03:55.431Z,90.20
2018-04-06T11:06:24.567Z,90.40
2018-04-06T11:08:53.733Z,90.00
2018-04-06T11:11:22.819Z,90.20
2018-04-06T11:13:51.923Z,89.90
2018-04-06T11:16:21.851Z,90.70
2018-04-06T11:18:50.940Z,90.60
2018-04-06T11:21:20.048Z,91.30
2018-04-06T11:23:49.304Z,91.50
2018-04-06T11:26:18.423Z,91.60
2018-04-06T11:28:47.527Z,91.30
2018-04-06T11:31:16.920Z,92.10
2018-04-06T11:33:46.352Z,91.10
2018-04-06T11:36:15.332Z,91.50
2018-04-06T11:38:44.631Z,91.70
2018-04-06T11:41:14.650Z,91.90
2018-04-06T11:43:44.568Z,92.60
2018-04-06T11:46:14.700Z,93.00
2018-04-06T11:48:44.912Z,91.90
2018-04-06T11:51:14.221Z,91.90
2018-04-06T11:53:44.359Z,92.80
2018-04-06T11:56:13.535Z,92.80
2018-04-06T11:58:42.764Z,93.00
2018-04-06T12:01:11.919Z,93.60
2018-04-06T12:03:40.896Z,93.20
2018-04-06T12:06:10.025Z,93.80
2018-04-06T12:08:39.972Z,94.20
2018-04-06T12:11:09.140Z,94.20
2018-04-06T12:13:39.487Z,94.80
2018-04-06T12:16:09.012Z,94.90
2018-04-06T12:18:39.432Z,95.20
2018-04-06T12:21:16.901Z,95.20
2018-04-06T12:23:46.686Z,96.00
2018-04-06T12:26:17.260Z,97.00
2018-04-06T12:28:47.413Z,97.60
2018-04-06T12:31:17.561Z,97.60
2018-04-06T12:33:48.048Z,97.60
2018-04-06T12:36:17.163Z,97.80
2018-04-06T12:38:49.399Z,99.20
2018-04-06T12:41:18.779Z,98.80
2018-04-06T12:43:48.797Z,98.70
2018-04-06T12:46:18.748Z,98.80
2018-04-06T12:48:48.032Z,98.80
2018-04-06T12:51:17.186Z,98.60
2018-04-06T12:53:46.418Z,98.70
2018-04-06T12:56:16.441Z,99.40
2018-04-06T12:58:46.682Z,99.90
2018-04-06T13:01:15.787Z,99.90
2018-04-06T13:03:46.550Z,99.10
2018-04-06T13:06:15.547Z,99.80
2018-04-06T13:08:45.855Z,98.80
2018-04-06T13:11:16.761Z,99.20
2018-04-06T13:13:47.036Z,99.70
2018-04-06T13:16:21.902Z,99.90
2018-04-06T13:18:51.847Z,99.70
2018-04-06T13:21:21.091Z,99.70
2018-04-06T13:23:50.892Z,99.10
2018-04-06T13:26:20.188Z,99.90
2018-04-06T13:28:49.464Z,99.90
2018-04-06T13:31:19.603Z,99.90
2018-04-06T13:33:49.061Z,99.90
2018-04-06T13:36:19.519Z,99.90
2018-04-06T13:38:48.955Z,99.90
2018-04-06T13:41:18.380Z,99.90
2018-04-06T13:43:47.768Z,99.90
2018-04-06T13:46:17.067Z,99.90
2018-04-06T13:48:46.526Z,99.90
2018-04-06T13:51:16.678Z,99.90
2018-04-06T13:53:46.022Z,99.90
2018-04-06T13:56:15.070Z,99.90
2018-04-06T13:58:45.649Z,99.90
2018-04-06T14:01:19.542Z,99.90
2018-04-06T14:03:53.198Z,99.90
2018-04-06T14:06:22.995Z,99.90
2018-04-06T14:08:54.919Z,99.90
2018-04-06T14:11:25.352Z,99.90
2018-04-06T14:13:59.650Z,99.90
2018-04-06T14:16:30.576Z,99.90
2018-04-06T14:19:04.972Z,99.90
2018-04-06T14:21:37.665Z,99.90
2018-04-06T14:24:09.512Z,99.90
2018-04-06T14:26:43.107Z,99.90
2018-04-06T14:29:13.643Z,99.90
2018-04-06T14:31:46.702Z,99.90
2018-04-06T14:34:17.896Z,99.90
2018-04-06T14:36:47.147Z,99.90
2018-04-06T14:39:16.642Z,99.90
2018-04-06T14:41:46.549Z,99.90
2018-04-06T14:44:17.086Z,99.90
2018-04-06T14:46:46.410Z,99.90
2018-04-06T14:49:15.609Z,99.90
2018-04-06T14:51:44.787Z,99.90
2018-04-06T14:54:14.051Z,99.90
2018-04-06T14:56:43.483Z,99.90
2018-04-06T14:59:12.887Z,99.90
2018-04-06T15:01:42.183Z,99.90
2018-04-06T15:04:16.367Z,99.90
2018-04-06T15:06:46.514Z,99.90
2018-04-06T15:09:15.734Z,99.90
2018-04-06T15:11:45.167Z,99.90
2018-04-06T15:14:14.523Z,99.90
2018-04-06T15:16:43.828Z,99.90
2018-04-06T15:19:14.153Z,99.90
2018-04-06T15:21:43.315Z,99.90
2018-04-06T15:24:12.593Z,99.90
2018-04-06T15:26:41.706Z,99.90
2018-04-06T15:29:10.780Z,99.90
2018-04-06T15:31:39.915Z,99.80
2018-04-06T15:34:10.072Z,99.20
2018-04-06T15:36:39.197Z,99.20
2018-04-06T15:39:08.545Z,99.10
2018-04-06T15:41:37.520Z,98.80
2018-04-06T15:44:07.064Z,98.70
2018-04-06T15:46:36.999Z,98.50
2018-04-06T15:49:06.441Z,98.50
2018-04-06T15:51:35.915Z,98.10
2018-04-06T15:54:05.215Z,98.10
2018-04-06T15:56:34.568Z,98.10
2018-04-06T15:59:04.791Z,98.10
2018-04-06T16:01:34.869Z,98.10
2018-04-06T16:04:04.698Z,98.10
2018-04-06T16:06:33.855Z,98.10
2018-04-06T16:09:04.259Z,98.20
2018-04-06T16:11:33.347Z,98.20
2018-04-06T16:14:02.770Z,98.20
2018-04-06T16:16:32.108Z,98.30
2018-04-06T16:19:01.556Z,98.20
2018-04-06T16:21:30.764Z,98.30
2018-04-06T16:24:00.207Z,98.30
2018-04-06T16:26:29.216Z,98.20
2018-04-06T16:28:58.511Z,98.10
2018-04-06T16:31:27.831Z,98.10
2018-04-06T16:33:57.192Z,97.90
2018-04-06T16:36:27.271Z,97.80
2018-04-06T16:38:56.742Z,97.80
2018-04-06T16:41:26.002Z,97.60
2018-04-06T16:43:55.330Z,97.80
2018-04-06T16:46:24.485Z,97.90
2018-04-06T16:48:53.534Z,97.90
2018-04-06T16:51:22.873Z,97.80
2018-04-06T16:53:52.324Z,97.60
2018-04-06T16:56:21.393Z,97.70
2018-04-06T16:58:51.730Z,97.90
2018-04-06T17:01:20.947Z,97.90
2018-04-06T17:03:51.262Z,97.70
2018-04-06T17:06:21.143Z,97.80
2018-04-06T17:08:50.469Z,97.70
2018-04-06T17:11:20.485Z,97.70
2018-04-06T17:13:49.848Z,97.70
2018-04-06T17:16:18.980Z,97.70
2018-04-06T17:18:49.013Z,97.40
2018-04-06T17:21:18.408Z,97.40
2018-04-06T17:23:48.532Z,97.40
2018-04-06T17:26:17.733Z,97.40
2018-04-06T17:28:47.048Z,97.50
2018-04-06T17:31:17.017Z,98.00
2018-04-06T17:33:48.229Z,98.90
2018-04-06T17:36:17.224Z,99.20
2018-04-06T17:38:47.548Z,99.50
2018-04-06T17:41:17.655Z,99.40
2018-04-06T17:43:47.513Z,99.30
2018-04-06T17:46:18.013Z,99.20
2018-04-06T17:48:47.264Z,99.20
2018-04-06T17:51:16.410Z,99.60
2018-04-06T17:53:45.574Z,99.70
2018-04-06T17:56:14.563Z,99.60
2018-04-06T17:58:44.687Z,99.60
2018-04-06T18:01:14.701Z,99.90
2018-04-06T18:03:44.588Z,99.90
2018-04-06T18:08:53.521Z,99.90
2018-04-06T18:11:23.588Z,99.90
2018-04-06T18:13:53.008Z,99.90
2018-04-06T18:16:22.489Z,99.90
2018-04-06T18:18:51.999Z,99.90
2018-04-06T18:21:22.265Z,99.80
2018-04-06T18:23:51.866Z,99.80
2018-04-06T18:26:21.945Z,99.60
2018-04-06T18:28:52.337Z,99.50
2018-04-06T18:31:21.891Z,99.50
2018-04-06T18:33:52.216Z,99.90
2018-04-06T18:36:22.402Z,99.90
2018-04-06T18:38:51.877Z,99.90
2018-04-06T18:41:21.204Z,99.90
2018-04-06T18:43:50.630Z,99.90
2018-04-06T18:46:20.869Z,99.90
2018-04-06T18:48:51.232Z,99.80
2018-04-06T18:51:21.413Z,99.70
2018-04-06T18:53:50.879Z,99.60
2018-04-06T18:56:21.047Z,99.00
2018-04-06T18:58:50.468Z,98.90
2018-04-06T19:01:19.946Z,98.70
2018-04-06T19:03:49.811Z,98.50
2018-04-06T19:06:19.886Z,97.80
2018-04-06T19:08:50.268Z,97.80
2018-04-06T19:11:19.612Z,97.80
2018-04-06T19:13:49.044Z,97.90
2018-04-06T19:16:18.136Z,98.30
2018-04-06T19:18:47.888Z,98.90
2018-04-06T19:21:17.262Z,99.40
2018-04-06T19:23:47.856Z,99.90
2018-04-06T19:26:17.013Z,99.90
2018-04-06T19:28:47.279Z,99.90
2018-04-06T19:31:16.551Z,99.90
2018-04-06T19:33:45.890Z,99.90
2018-04-06T19:36:16.796Z,99.90
2018-04-06T19:38:46.422Z,99.90
2018-04-06T19:41:15.553Z,99.80
2018-04-06T19:43:45.801Z,99.50
2018-04-06T19:46:16.010Z,99.30
2018-04-06T19:48:45.301Z,99.40
2018-04-06T19:51:14.601Z,99.10
2018-04-06T19:53:44.643Z,98.90
2018-04-06T19:56:13.819Z,98.80
2018-04-06T19:58:43.219Z,99.10
2018-04-06T20:01:12.392Z,99.30
2018-04-06T20:03:41.589Z,99.10
2018-04-06T20:06:10.603Z,98.50
2018-04-06T20:08:39.707Z,98.30
2018-04-06T20:11:08.994Z,98.60
2018-04-06T20:13:38.570Z,99.30
2018-04-06T20:16:07.724Z,99.70
2018-04-06T20:18:36.956Z,99.90
2018-04-06T20:21:06.950Z,99.90
2018-04-06T20:23:36.582Z,99.90
2018-04-06T20:26:05.683Z,99.90
2018-04-06T20:28:35.967Z,99.90
2018-04-06T20:31:05.940Z,99.90
2018-04-06T20:33:35.242Z,99.90
2018-04-06T20:36:04.587Z,99.90
2018-04-06T20:38:34.845Z,99.90
2018-04-06T20:41:03.942Z,99.90
2018-04-06T20:43:33.296Z,99.90
2018-04-06T20:46:02.443Z,99.90
2018-04-06T20:48:31.611Z,99.90
2018-04-06T20:51:00.900Z,99.90
2018-04-06T20:53:30.212Z,99.90
2018-04-06T20:55:59.964Z,99.90
2018-04-06T20:58:29.096Z,99.90
2018-04-06T21:00:58.415Z,99.90
2018-04-06T21:03:27.426Z,99.90
2018-04-06T21:05:57.265Z,99.90
2018-04-06T21:08:27.561Z,99.90
2018-04-06T21:10:56.757Z,99.90
2018-04-06T21:13:26.173Z,99.90
2018-04-06T21:15:55.264Z,99.90
2018-04-06T21:18:24.387Z,99.90
2018-04-06T21:20:53.391Z,99.90
2018-04-06T21:23:22.706Z,99.90
2018-04-06T21:25:52.277Z,99.90
2018-04-06T21:28:22.275Z,99.90
2018-04-06T21:30:52.195Z,99.90
2018-04-06T21:33:21.192Z,99.90
2018-04-06T21:35:50.393Z,99.90
2018-04-06T21:38:20.720Z,99.90
2018-04-06T21:40:50.696Z,99.90
2018-04-06T21:43:20.188Z,99.90
2018-04-06T21:45:50.274Z,99.90
2018-04-06T21:48:20.495Z,99.90
2018-04-06T21:50:49.446Z,99.90
2018-04-06T21:53:18.680Z,99.90
2018-04-06T21:55:48.796Z,99.90
2018-04-06T21:58:18.949Z,99.90
2018-04-06T22:00:48.761Z,99.90
2018-04-06T22:03:18.105Z,99.90
2018-04-06T22:05:47.307Z,99.90
2018-04-06T22:08:17.357Z,99.90
2018-04-06T22:10:46.560Z,99.90
2018-04-06T22:13:16.681Z,99.90
2018-04-06T22:15:46.592Z,99.90
2018-04-06T22:18:16.572Z,99.90
2018-04-06T22:20:45.533Z,99.90
2018-04-06T22:23:14.700Z,99.90
2018-04-06T22:25:44.670Z,99.90
2018-04-06T22:28:14.099Z,99.90
2018-04-06T22:30:43.152Z,99.90
2018-04-06T22:33:13.239Z,99.90
2018-04-06T22:35:42.441Z,99.90
2018-04-06T22:38:12.661Z,99.90
2018-04-06T22:40:42.644Z,99.90
2018-04-06T22:43:12.238Z,99.90
2018-04-06T22:45:41.420Z,99.90
2018-04-06T22:48:10.866Z,99.90
2018-04-06T22:50:39.920Z,99.90
2018-04-06T22:53:09.057Z,99.90
2018-04-06T22:55:38.370Z,99.90
2018-04-06T22:58:07.747Z,99.90
2018-04-06T23:00:36.989Z,99.90
2018-04-06T23:03:06.401Z,99.90
2018-04-06T23:05:35.462Z,99.90
2018-04-06T23:08:04.702Z,99.90
2018-04-06T23:10:33.685Z,99.90
2018-04-06T23:13:02.939Z,99.90
2018-04-06T23:15:32.348Z,99.90
2018-04-06T23:18:01.724Z,99.90
2018-04-06T23:20:31.871Z,99.90
2018-04-06T23:23:01.359Z,99.90
2018-04-06T23:25:30.565Z,99.90
2018-04-06T23:27:59.788Z,99.90
2018-04-06T23:30:28.872Z,99.90
2018-04-06T23:32:58.074Z,99.90
2018-04-06T23:35:27.278Z,99.90
2018-04-06T23:37:56.858Z,99.90
2018-04-06T23:40:26.023Z,99.90
2018-04-06T23:42:56.072Z,99.70
2018-04-06T23:45:25.244Z,99.70
2018-04-06T23:47:54.684Z,99.70
2018-04-06T23:50:23.839Z,99.80
2018-04-06T23:52:54.203Z,99.60
2018-04-06T23:55:23.243Z,99.60
2018-04-06T23:57:52.579Z,99.50
